Time;durP1;ratioP1;P1;durP2;ratioP2;P2;SDS_P1;SDS_P2;PMS_P1;PMS_P2;Temp;Humidity;BMP_temperature;BMP_pressure;BME280_temperature;BME280_humidity;BME280_pressure;Samples;Min_cycle;Max_cycle;Signal;HPM_P1;HPM_P2
2023/08/24 00:01:06;;;;;;;1.42;1.33;;;23.70;63.00;;;;;;5052608;28;20630;-59
2023/08/24 00:03:32;;;;;;;1.63;1.52;;;23.70;63.00;;;;;;5053770;28;20171;-59
2023/08/24 00:05:58;;;;;;;0.90;0.90;;;23.70;62.90;;;;;;5053287;28;20234;-59
2023/08/24 00:08:23;;;;;;;1.58;1.48;;;23.70;63.00;;;;;;5052772;28;20254;-59
2023/08/24 00:10:49;;;;;;;0.95;0.95;;;23.70;62.90;;;;;;5053308;28;20665;-60
2023/08/24 00:13:15;;;;;;;1.63;1.52;;;23.70;63.00;;;;;;5053020;28;20696;-59
2023/08/24 00:15:41;;;;;;;1.02;1.00;;;23.70;63.00;;;;;;5052947;28;20228;-59
2023/08/24 00:18:06;;;;;;;1.33;1.20;;;23.70;62.90;;;;;;5052916;28;20250;-59
2023/08/24 00:20:32;;;;;;;1.50;1.40;;;23.70;63.00;;;;;;5052740;28;20206;-59
2023/08/24 00:22:58;;;;;;;1.48;1.20;;;23.70;62.90;;;;;;5053162;28;20266;-59
2023/08/24 00:25:25;;;;;;;1.13;1.13;;;23.70;62.90;;;;;;5053016;28;20321;-59
2023/08/24 00:27:52;;;;;;;1.27;1.10;;;23.70;63.00;;;;;;5052421;28;20600;-59
2023/08/24 00:30:18;;;;;;;1.80;1.10;;;23.70;62.90;;;;;;5052647;28;20194;-59
2023/08/24 00:32:44;;;;;;;1.40;1.00;;;23.70;63.00;;;;;;5052760;28;20544;-59
2023/08/24 00:35:10;;;;;;;1.08;0.90;;;23.70;63.00;;;;;;5052132;28;20179;-59
2023/08/24 00:37:36;;;;;;;2.00;1.30;;;23.70;63.00;;;;;;5052718;28;20637;-60
2023/08/24 00:40:08;;;;;;;1.42;1.23;;;23.70;63.90;;;;;;5052798;28;20190;-60
2023/08/24 00:42:37;;;;;;;1.65;1.20;;;23.70;63.00;;;;;;5051224;28;20206;-59
2023/08/24 00:45:03;;;;;;;1.00;0.98;;;23.70;63.00;;;;;;5052642;28;20218;-60
2023/08/24 00:47:29;;;;;;;3.40;1.15;;;23.70;63.00;;;;;;5052684;28;20309;-59
2023/08/24 00:49:54;;;;;;;1.40;1.30;;;23.70;63.10;;;;;;5052189;28;20250;-59
2023/08/24 00:52:20;;;;;;;1.00;1.00;;;23.70;63.00;;;;;;5052589;28;20163;-59
2023/08/24 00:54:46;;;;;;;1.23;1.10;;;23.70;63.90;;;;;;5051576;28;20339;-60
2023/08/24 00:57:12;;;;;;;1.27;1.17;;;23.70;63.10;;;;;;5050740;28;20175;-59
2023/08/24 00:59:37;;;;;;;1.35;1.25;;;23.70;63.10;;;;;;5052931;28;20190;-59
2023/08/24 01:02:03;;;;;;;1.92;1.20;;;23.70;63.00;;;;;;5052524;28;20171;-59
2023/08/24 01:04:28;;;;;;;1.20;1.10;;;23.70;63.00;;;;;;5051869;28;20221;-60
2023/08/24 01:06:54;;;;;;;1.42;1.13;;;23.70;63.90;;;;;;5052691;28;20250;-60
2023/08/24 01:09:20;;;;;;;1.00;1.00;;;23.60;63.00;;;;;;5052307;28;20175;-59
2023/08/24 01:12:07;;;;;;;1.83;1.35;;;23.70;63.90;;;;;;5050665;28;20649;-59
2023/08/24 01:14:44;;;;;;;0.95;0.90;;;23.70;63.10;;;;;;5052756;28;20187;-59
2023/08/24 01:17:12;;;;;;;1.65;1.17;;;23.70;63.10;;;;;;5050375;28;20652;-59
2023/08/24 01:19:41;;;;;;;1.40;1.08;;;23.70;63.10;;;;;;5052569;28;20197;-59
2023/08/24 01:22:27;;;;;;;2.83;1.42;;;23.70;63.10;;;;;;5052146;28;20667;-59
2023/08/24 01:25:07;;;;;;;1.50;1.40;;;23.60;63.00;;;;;;5051840;28;20254;-59
2023/08/24 01:27:34;;;;;;;1.30;1.20;;;23.60;63.00;;;;;;5052512;28;20175;-59
2023/08/24 01:30:00;;;;;;;1.00;1.00;;;23.70;63.10;;;;;;5051103;28;20183;-59
2023/08/24 01:32:26;;;;;;;1.60;1.30;;;23.70;63.10;;;;;;5050656;28;20171;-59
2023/08/24 01:34:51;;;;;;;1.25;1.15;;;23.70;63.20;;;;;;5052618;28;20325;-59
2023/08/24 01:37:17;;;;;;;1.83;1.38;;;23.70;63.20;;;;;;5052548;28;20249;-59
2023/08/24 01:39:50;;;;;;;2.67;1.40;;;23.70;63.10;;;;;;5050506;28;20183;-61
2023/08/24 01:42:18;;;;;;;1.40;1.30;;;23.70;63.10;;;;;;5051754;28;20262;-60
2023/08/24 01:44:45;;;;;;;2.60;1.30;;;23.70;63.10;;;;;;5055133;28;20621;-63
2023/08/24 01:47:11;;;;;;;1.80;1.30;;;23.70;63.10;;;;;;5054327;28;20233;-60
2023/08/24 01:49:37;;;;;;;1.48;1.38;;;23.70;63.10;;;;;;5054962;28;20167;-59
2023/08/24 01:52:03;;;;;;;1.20;1.10;;;23.60;63.90;;;;;;5054078;28;20210;-59
2023/08/24 01:54:29;;;;;;;1.83;1.40;;;23.60;63.10;;;;;;5054915;28;20256;-59
2023/08/24 01:56:54;;;;;;;1.35;1.25;;;23.70;63.20;;;;;;5054872;28;20250;-59
2023/08/24 01:59:20;;;;;;;1.30;1.20;;;23.60;63.90;;;;;;5054816;28;20225;-59
2023/08/24 02:01:45;;;;;;;1.40;1.30;;;23.60;63.10;;;;;;5055870;28;20202;-59
2023/08/24 02:04:11;;;;;;;1.73;1.10;;;23.60;63.10;;;;;;5055519;28;20526;-59
2023/08/24 02:06:36;;;;;;;1.80;1.30;;;23.60;63.10;;;;;;5055257;28;20175;-59
2023/08/24 02:09:02;;;;;;;1.42;1.17;;;23.60;63.20;;;;;;5055720;28;20240;-60
2023/08/24 02:11:28;;;;;;;2.00;1.13;;;23.60;63.20;;;;;;5055546;28;20174;-59
2023/08/24 02:13:53;;;;;;;1.55;1.30;;;23.60;63.20;;;;;;5054973;28;20164;-59
2023/08/24 02:16:19;;;;;;;1.42;1.33;;;23.60;63.20;;;;;;5055535;28;20183;-59
2023/08/24 02:18:45;;;;;;;1.42;1.30;;;23.60;63.20;;;;;;5055787;28;20201;-59
2023/08/24 02:21:11;;;;;;;1.45;1.35;;;23.60;63.20;;;;;;5054878;28;20253;-59
2023/08/24 02:23:38;;;;;;;1.75;1.40;;;23.60;63.20;;;;;;5055457;28;20535;-60
2023/08/24 02:26:04;;;;;;;1.70;1.23;;;23.60;63.20;;;;;;5055053;28;20709;-59
2023/08/24 02:28:30;;;;;;;1.67;1.10;;;23.60;63.20;;;;;;5054742;28;20653;-59
2023/08/24 02:31:00;;;;;;;2.55;1.45;;;23.60;63.20;;;;;;5055262;28;20183;-59
2023/08/24 02:33:26;;;;;;;1.50;1.40;;;23.60;63.20;;;;;;5055204;28;20609;-59
2023/08/24 02:35:51;;;;;;;1.42;1.33;;;23.60;63.20;;;;;;5054464;28;20275;-59
2023/08/24 02:38:17;;;;;;;1.67;1.15;;;23.60;63.20;;;;;;5055021;28;20778;-59
2023/08/24 02:40:43;;;;;;;1.30;1.20;;;23.60;63.20;;;;;;5055085;28;20638;-60
2023/08/24 02:43:08;;;;;;;1.30;1.20;;;23.60;63.20;;;;;;5053973;28;20225;-59
2023/08/24 02:45:34;;;;;;;1.17;1.08;;;23.60;63.30;;;;;;5055047;28;20229;-59
2023/08/24 02:47:59;;;;;;;1.27;1.17;;;23.60;63.30;;;;;;5054857;28;20656;-59
2023/08/24 02:50:25;;;;;;;1.20;1.10;;;23.60;63.20;;;;;;5054368;28;20198;-59
2023/08/24 02:52:51;;;;;;;1.63;1.50;;;23.60;63.30;;;;;;5055087;28;20613;-59
2023/08/24 02:55:17;;;;;;;1.45;1.30;;;23.60;63.30;;;;;;5053009;28;20608;-59
2023/08/24 02:57:42;;;;;;;1.38;1.27;;;23.60;63.30;;;;;;5054867;28;20195;-59
2023/08/24 03:00:09;;;;;;;1.08;1.02;;;23.60;63.30;;;;;;5054753;28;20636;-59
2023/08/24 03:02:36;;;;;;;1.20;1.10;;;23.60;63.30;;;;;;5053898;28;20175;-59
2023/08/24 03:05:02;;;;;;;1.40;1.30;;;23.60;63.30;;;;;;5054507;28;20219;-60
2023/08/24 03:07:27;;;;;;;1.30;1.25;;;23.60;63.30;;;;;;5054620;28;20577;-59
2023/08/24 03:09:53;;;;;;;1.27;1.17;;;23.60;63.30;;;;;;5053960;28;20175;-59
2023/08/24 03:12:18;;;;;;;1.80;1.45;;;23.60;63.30;;;;;;5054378;28;20276;-59
2023/08/24 03:14:44;;;;;;;0.90;0.90;;;23.60;63.30;;;;;;5054670;28;20254;-59
2023/08/24 03:17:09;;;;;;;1.45;1.35;;;23.60;63.30;;;;;;5053716;28;20175;-59
2023/08/24 03:19:35;;;;;;;1.05;1.05;;;23.60;64.10;;;;;;5054495;28;20171;-59
2023/08/24 03:22:00;;;;;;;2.72;1.58;;;23.60;63.30;;;;;;5054134;28;20178;-59
2023/08/24 03:24:26;;;;;;;1.23;1.13;;;23.60;63.30;;;;;;5053496;28;20293;-59
2023/08/24 03:26:51;;;;;;;1.38;1.27;;;23.60;64.20;;;;;;5054176;28;20182;-59
2023/08/24 03:29:17;;;;;;;1.20;1.20;;;23.60;63.40;;;;;;5054145;28;20496;-59
2023/08/24 03:31:42;;;;;;;1.83;1.67;;;23.60;63.40;;;;;;5053609;28;20175;-59
2023/08/24 03:34:08;;;;;;;1.38;1.27;;;23.60;63.40;;;;;;5053663;28;20564;-59
2023/08/24 03:36:33;;;;;;;1.40;1.30;;;23.60;63.40;;;;;;5054404;28;20638;-59
2023/08/24 03:38:59;;;;;;;1.48;1.20;;;23.60;63.40;;;;;;5053412;28;20733;-60
2023/08/24 03:41:25;;;;;;;2.17;1.50;;;23.60;63.40;;;;;;5053928;28;20213;-59
2023/08/24 03:43:50;;;;;;;1.50;1.40;;;23.60;63.40;;;;;;5053995;28;20610;-59
2023/08/24 03:46:16;;;;;;;1.60;1.45;;;23.60;63.40;;;;;;5052818;28;20234;-59
2023/08/24 03:48:41;;;;;;;1.30;1.10;;;23.50;63.30;;;;;;5054006;28;20254;-59
2023/08/24 03:51:07;;;;;;;1.25;1.13;;;23.60;63.40;;;;;;5053696;28;20213;-58
2023/08/24 03:53:32;;;;;;;1.48;1.35;;;23.60;63.50;;;;;;5053163;28;20694;-58
2023/08/24 03:55:58;;;;;;;1.40;1.30;;;23.60;63.50;;;;;;5053738;28;20607;-59
2023/08/24 03:58:23;;;;;;;1.05;1.02;;;23.60;63.50;;;;;;5053434;28;20183;-59
2023/08/24 04:00:50;;;;;;;2.65;1.50;;;23.50;63.40;;;;;;5053389;28;20200;-60
2023/08/24 04:03:15;;;;;;;1.63;1.40;;;23.60;63.50;;;;;;5053503;28;20187;-59
2023/08/24 04:05:41;;;;;;;1.23;1.13;;;23.60;63.50;;;;;;5052895;28;20592;-60
2023/08/24 04:08:07;;;;;;;1.38;1.33;;;23.50;63.60;;;;;;5053218;28;20198;-59
2023/08/24 04:10:32;;;;;;;1.25;1.20;;;23.50;63.40;;;;;;5053412;28;20258;-60
2023/08/24 04:12:58;;;;;;;2.00;1.42;;;23.50;63.40;;;;;;5052722;28;20258;-59
2023/08/24 04:15:23;;;;;;;1.70;1.40;;;23.50;64.30;;;;;;5053546;28;21029;-59
2023/08/24 04:17:49;;;;;;;1.85;1.45;;;23.50;63.40;;;;;;5053442;28;20174;-59
2023/08/24 04:20:15;;;;;;;2.17;1.65;;;23.50;63.40;;;;;;5052414;28;20179;-59
2023/08/24 04:22:41;;;;;;;1.42;1.30;;;23.50;63.50;;;;;;5053247;28;20683;-59
2023/08/24 04:25:07;;;;;;;1.70;1.55;;;23.50;63.50;;;;;;5052699;28;20223;-59
2023/08/24 04:27:33;;;;;;;1.65;1.33;;;23.50;63.50;;;;;;5052659;28;20236;-59
2023/08/24 04:29:58;;;;;;;1.63;1.52;;;23.50;63.50;;;;;;5053067;28;20226;-59
2023/08/24 04:32:24;;;;;;;1.45;1.30;;;23.50;63.50;;;;;;5053172;28;20352;-59
2023/08/24 04:34:50;;;;;;;1.50;1.40;;;23.50;63.50;;;;;;5052499;28;20674;-59
2023/08/24 04:37:15;;;;;;;2.28;1.50;;;23.50;63.50;;;;;;5052647;28;20207;-59
2023/08/24 04:39:41;;;;;;;2.08;1.58;;;23.50;63.50;;;;;;5052988;28;20262;-60
2023/08/24 04:42:06;;;;;;;2.10;1.23;;;23.50;63.50;;;;;;5052161;28;20179;-60
2023/08/24 04:44:33;;;;;;;1.30;1.20;;;23.50;63.50;;;;;;5052782;28;20195;-60
2023/08/24 04:46:58;;;;;;;1.45;1.30;;;23.50;63.50;;;;;;5062148;28;20231;-59
2023/08/24 04:49:24;;;;;;;1.85;1.50;;;23.50;63.50;;;;;;5052214;28;20186;-59
2023/08/24 04:51:50;;;;;;;1.40;1.30;;;23.50;63.50;;;;;;5051659;28;20285;-60
2023/08/24 04:54:16;;;;;;;1.85;1.75;;;23.50;63.50;;;;;;5052457;28;20265;-59
2023/08/24 04:56:41;;;;;;;1.60;1.50;;;23.50;63.50;;;;;;5052006;28;20202;-59
2023/08/24 04:59:07;;;;;;;1.40;1.30;;;23.50;63.50;;;;;;5052708;28;20641;-60
2023/08/24 05:01:33;;;;;;;1.50;1.30;;;23.50;63.50;;;;;;5052915;28;20266;-59
2023/08/24 05:03:59;;;;;;;1.40;1.15;;;23.50;63.50;;;;;;5051715;28;20175;-60
2023/08/24 05:06:25;;;;;;;1.58;1.40;;;23.50;63.50;;;;;;5052728;28;20189;-60
2023/08/24 05:08:50;;;;;;;1.42;1.33;;;23.50;63.50;;;;;;5052041;28;20237;-59
2023/08/24 05:11:24;;;;;;;3.47;1.63;;;23.50;63.50;;;;;;5052380;28;20581;-59
2023/08/24 05:13:50;;;;;;;1.58;1.40;;;23.50;63.50;;;;;;5052939;28;20186;-59
2023/08/24 05:16:15;;;;;;;2.15;1.50;;;23.50;63.50;;;;;;5051705;28;20198;-59
2023/08/24 05:18:41;;;;;;;1.55;1.45;;;23.50;63.50;;;;;;5055905;28;20175;-59
2023/08/24 05:21:07;;;;;;;1.40;1.30;;;23.50;63.50;;;;;;5056571;28;20186;-59
2023/08/24 05:23:32;;;;;;;2.22;1.60;;;23.50;64.40;;;;;;5055727;28;20653;-59
2023/08/24 05:25:58;;;;;;;1.38;1.27;;;23.50;63.50;;;;;;5056283;28;20214;-59
2023/08/24 05:28:27;;;;;;;1.67;1.50;;;23.50;63.50;;;;;;5056584;28;20178;-59
2023/08/24 05:30:53;;;;;;;1.55;1.45;;;23.50;63.50;;;;;;5055885;28;20258;-59
2023/08/24 05:33:19;;;;;;;1.50;1.40;;;23.50;63.50;;;;;;5056177;28;20254;-59
2023/08/24 05:35:45;;;;;;;1.30;1.20;;;23.50;63.50;;;;;;5056310;28;20749;-59
2023/08/24 05:38:10;;;;;;;1.60;1.50;;;23.50;63.50;;;;;;5055380;28;20265;-59
2023/08/24 05:40:37;;;;;;;1.50;1.40;;;23.50;63.50;;;;;;5056380;28;20171;-59
2023/08/24 05:43:03;;;;;;;2.33;1.45;;;23.50;63.50;;;;;;5056035;28;20665;-59
2023/08/24 05:45:28;;;;;;;1.33;1.23;;;23.50;63.40;;;;;;5055603;28;20214;-59
2023/08/24 05:47:54;;;;;;;1.42;1.33;;;23.50;63.40;;;;;;5056032;28;20709;-59
2023/08/24 05:50:19;;;;;;;1.40;1.38;;;23.50;64.30;;;;;;5055800;28;20589;-59
2023/08/24 05:52:45;;;;;;;1.58;1.48;;;23.50;63.50;;;;;;5055358;28;20210;-58
2023/08/24 05:55:10;;;;;;;1.83;1.50;;;23.50;63.40;;;;;;5055932;28;20569;-59
2023/08/24 05:57:36;;;;;;;1.45;1.35;;;23.50;63.50;;;;;;5056035;28;20224;-59
2023/08/24 06:00:03;;;;;;;1.45;1.30;;;23.50;63.50;;;;;;5055120;28;20237;-60
2023/08/24 06:02:28;;;;;;;1.48;1.35;;;23.50;63.50;;;;;;5056160;28;20599;-60
2023/08/24 06:04:54;;;;;;;1.08;1.08;;;23.50;63.50;;;;;;5054916;28;20230;-60
2023/08/24 06:07:21;;;;;;;1.33;1.33;;;23.50;63.50;;;;;;5054901;28;20175;-60
2023/08/24 06:09:47;;;;;;;1.40;1.30;;;23.50;63.50;;;;;;5056007;28;20254;-60
2023/08/24 06:12:12;;;;;;;1.60;1.50;;;23.50;63.50;;;;;;5054831;28;20598;-59
2023/08/24 06:14:38;;;;;;;1.50;1.40;;;23.50;63.50;;;;;;5055726;28;20182;-59
2023/08/24 06:17:03;;;;;;;1.38;1.27;;;23.50;63.50;;;;;;5055533;28;20206;-60
2023/08/24 06:19:29;;;;;;;1.25;1.25;;;23.50;63.50;;;;;;5054719;28;20183;-60
2023/08/24 06:21:55;;;;;;;1.75;1.58;;;23.50;63.40;;;;;;5055494;28;20182;-60
2023/08/24 06:24:20;;;;;;;1.60;1.50;;;23.50;63.40;;;;;;5055054;28;20240;-60
2023/08/24 06:26:46;;;;;;;1.50;1.40;;;23.50;63.40;;;;;;5054638;28;20186;-59
2023/08/24 06:29:11;;;;;;;2.15;1.40;;;23.50;63.40;;;;;;5054048;28;20171;-60
2023/08/24 06:31:37;;;;;;;1.38;1.27;;;23.50;63.40;;;;;;5055460;28;20258;-60
2023/08/24 06:34:02;;;;;;;1.40;1.30;;;23.50;63.40;;;;;;5054489;28;20179;-60
2023/08/24 06:36:29;;;;;;;1.02;0.98;;;23.50;63.40;;;;;;5055184;28;20171;-60
2023/08/24 06:38:55;;;;;;;1.63;1.50;;;23.50;63.40;;;;;;5055244;28;20246;-60
2023/08/24 06:41:20;;;;;;;1.50;1.40;;;23.50;63.40;;;;;;5054348;28;20564;-60
2023/08/24 06:43:46;;;;;;;1.58;1.40;;;23.50;63.50;;;;;;5055267;28;20182;-60
2023/08/24 06:46:12;;;;;;;1.35;1.25;;;23.50;63.40;;;;;;5054792;28;20733;-60
2023/08/24 06:48:38;;;;;;;1.40;1.30;;;23.50;63.40;;;;;;5054861;28;20253;-60
2023/08/24 06:51:04;;;;;;;1.55;1.45;;;23.50;63.40;;;;;;5054652;28;20183;-60
2023/08/24 06:53:30;;;;;;;1.42;1.30;;;23.50;63.40;;;;;;5055153;28;20236;-60
2023/08/24 06:55:56;;;;;;;1.50;1.40;;;23.50;63.40;;;;;;5054232;28;20175;-60
2023/08/24 06:58:21;;;;;;;1.60;1.50;;;23.60;63.50;;;;;;5054606;28;20210;-59
2023/08/24 07:00:48;;;;;;;1.42;1.33;;;23.60;63.50;;;;;;5055066;28;20198;-60
2023/08/24 07:03:13;;;;;;;1.90;1.75;;;23.50;63.30;;;;;;5053962;28;20190;-59
2023/08/24 07:05:39;;;;;;;1.45;1.20;;;23.60;63.40;;;;;;5054567;28;20570;-60
2023/08/24 07:08:05;;;;;;;1.45;1.35;;;23.60;63.40;;;;;;5054652;28;20244;-60
2023/08/24 07:10:31;;;;;;;2.67;1.52;;;23.60;63.50;;;;;;5054034;28;20190;-60
2023/08/24 07:12:56;;;;;;;1.60;1.50;;;23.60;63.40;;;;;;5054847;28;20168;-59
2023/08/24 07:15:22;;;;;;;1.60;1.50;;;23.60;64.20;;;;;;5053786;28;20258;-59
2023/08/24 07:17:47;;;;;;;1.30;1.20;;;23.60;63.40;;;;;;5054368;28;20649;-60
2023/08/24 07:20:13;;;;;;;1.33;1.23;;;23.60;63.40;;;;;;5054056;28;20548;-60
2023/08/24 07:22:38;;;;;;;1.98;1.50;;;23.60;63.40;;;;;;5053540;28;20533;-60
2023/08/24 07:25:05;;;;;;;1.40;1.30;;;23.60;63.40;;;;;;5054207;28;20215;-60
2023/08/24 07:27:33;;;;;;;2.33;1.95;;;23.60;63.40;;;;;;5054477;28;20232;-60
2023/08/24 07:29:59;;;;;;;2.00;1.80;;;23.60;63.40;;;;;;5053403;28;20540;-59
2023/08/24 07:32:26;;;;;;;1.65;1.45;;;23.60;63.40;;;;;;5054208;28;20645;-59
2023/08/24 07:34:52;;;;;;;1.60;1.50;;;23.60;63.40;;;;;;5054206;28;20171;-60
2023/08/24 07:37:17;;;;;;;1.88;1.40;;;23.60;63.40;;;;;;5053308;28;20270;-60
2023/08/24 07:39:43;;;;;;;1.85;1.73;;;23.60;63.40;;;;;;5053998;28;20167;-60
2023/08/24 07:42:08;;;;;;;1.90;1.80;;;23.60;64.20;;;;;;5053823;28;20183;-60
2023/08/24 07:44:34;;;;;;;1.60;1.50;;;23.60;63.40;;;;;;5053266;28;20332;-60
2023/08/24 07:46:59;;;;;;;1.90;1.80;;;23.60;63.40;;;;;;5053566;28;20222;-60
2023/08/24 07:49:25;;;;;;;1.90;1.58;;;23.60;63.40;;;;;;5053843;28;20187;-60
2023/08/24 07:51:50;;;;;;;1.65;1.50;;;23.60;63.30;;;;;;5053403;28;20235;-59
2023/08/24 07:54:16;;;;;;;1.70;1.48;;;23.60;63.40;;;;;;5053673;28;20268;-59
2023/08/24 07:56:42;;;;;;;2.70;1.95;;;23.60;63.40;;;;;;5053930;28;20179;-60
2023/08/24 07:59:07;;;;;;;1.42;1.33;;;23.60;63.30;;;;;;5052745;28;20182;-59
2023/08/24 08:01:33;;;;;;;1.77;1.58;;;23.60;63.30;;;;;;5053800;28;20633;-59
2023/08/24 08:04:00;;;;;;;1.45;1.35;;;23.60;63.30;;;;;;5053304;28;20641;-60
2023/08/24 08:06:26;;;;;;;1.50;1.40;;;23.60;63.30;;;;;;5052638;28;20222;-60
2023/08/24 08:08:52;;;;;;;1.60;1.50;;;23.60;63.40;;;;;;5053641;28;20175;-60
2023/08/24 08:11:17;;;;;;;1.60;1.50;;;23.60;63.30;;;;;;5053296;28;20278;-59
2023/08/24 08:13:43;;;;;;;1.90;1.65;;;23.70;64.20;;;;;;5052756;28;20262;-64
2023/08/24 08:16:09;;;;;;;1.45;1.35;;;23.70;63.40;;;;;;5053323;28;20201;-60
2023/08/24 08:18:36;;;;;;;1.70;1.52;;;23.70;63.40;;;;;;5053365;28;20168;-60
2023/08/24 08:21:17;;;;;;;1.05;1.05;;;23.70;63.40;;;;;;5052549;28;20207;-60
2023/08/24 08:23:45;;;;;;;1.30;1.20;;;23.70;63.40;;;;;;5053471;28;20171;-60
2023/08/24 08:26:10;;;;;;;1.45;1.35;;;23.70;63.30;;;;;;5052168;28;20214;-60
2023/08/24 08:28:36;;;;;;;1.80;1.70;;;23.70;63.30;;;;;;5053129;28;20186;-60
2023/08/24 08:31:02;;;;;;;1.60;1.50;;;23.70;63.30;;;;;;5052829;28;20178;-60
2023/08/24 08:33:28;;;;;;;1.42;1.33;;;23.70;63.30;;;;;;5052527;28;20233;-60
2023/08/24 08:35:54;;;;;;;1.10;1.10;;;23.70;63.30;;;;;;5053354;28;20182;-60
2023/08/24 08:38:21;;;;;;;1.55;1.33;;;23.70;64.20;;;;;;5052826;28;20193;-60
2023/08/24 08:40:47;;;;;;;1.52;1.42;;;23.70;63.40;;;;;;5052491;28;20175;-60
2023/08/24 08:43:12;;;;;;;1.65;1.55;;;23.70;63.30;;;;;;5052752;28;20638;-60
2023/08/24 08:45:38;;;;;;;1.50;1.40;;;23.80;63.40;;;;;;5052882;28;20687;-60
2023/08/24 08:48:05;;;;;;;1.67;1.58;;;23.70;63.30;;;;;;5051975;28;20687;-60
2023/08/24 08:50:32;;;;;;;1.52;1.42;;;23.70;63.40;;;;;;5051624;28;20270;-60
2023/08/24 08:52:58;;;;;;;1.63;1.52;;;23.70;63.30;;;;;;5052119;28;20193;-60
2023/08/24 08:55:24;;;;;;;1.67;1.58;;;23.80;63.40;;;;;;5052165;28;20191;-60
2023/08/24 08:57:49;;;;;;;1.50;1.33;;;23.80;63.40;;;;;;5051529;28;20549;-60
2023/08/24 09:00:18;;;;;;;1.42;1.35;;;23.70;63.40;;;;;;5052348;28;20202;-60
2023/08/24 09:02:45;;;;;;;1.38;1.27;;;23.80;63.40;;;;;;5052151;28;20182;-60
2023/08/24 09:05:11;;;;;;;1.50;1.40;;;23.80;63.40;;;;;;5051361;28;20215;-60
2023/08/24 09:07:38;;;;;;;1.75;1.65;;;23.80;63.40;;;;;;5052839;28;20171;-60
2023/08/24 09:10:06;;;;;;;1.45;1.38;;;23.80;63.40;;;;;;5051758;28;20189;-59
2023/08/24 09:12:34;;;;;;;2.03;1.77;;;23.80;63.40;;;;;;5052648;28;20237;-60
2023/08/24 09:15:04;;;;;;;1.77;1.52;;;23.80;63.30;;;;;;5051665;28;20195;-60
2023/08/24 09:17:29;;;;;;;1.75;1.42;;;23.80;64.20;;;;;;5052446;28;20709;-60
2023/08/24 09:20:00;;;;;;;1.58;1.48;;;23.80;63.30;;;;;;5052667;28;20257;-60
2023/08/24 09:22:25;;;;;;;1.80;1.70;;;23.80;63.30;;;;;;5051986;28;20179;-60
2023/08/24 09:24:51;;;;;;;1.70;1.60;;;23.80;63.30;;;;;;5052430;28;20301;-60
2023/08/24 09:27:20;;;;;;;1.58;1.38;;;23.80;63.30;;;;;;5052208;28;20182;-59
2023/08/24 09:29:50;;;;;;;1.58;1.35;;;23.80;63.40;;;;;;5052014;28;20179;-59
2023/08/24 09:32:22;;;;;;;1.55;1.45;;;23.80;63.40;;;;;;5052187;28;20265;-59
2023/08/24 09:34:47;;;;;;;1.60;1.42;;;23.80;63.40;;;;;;5052626;28;20179;-60
2023/08/24 09:37:15;;;;;;;1.63;1.52;;;23.80;63.40;;;;;;5051399;28;20278;-60
2023/08/24 09:39:41;;;;;;;1.50;1.40;;;23.80;63.40;;;;;;5052268;28;20187;-60
2023/08/24 09:42:06;;;;;;;1.60;1.50;;;23.80;63.40;;;;;;5050845;28;20194;-60
2023/08/24 09:44:32;;;;;;;1.40;1.30;;;23.80;63.40;;;;;;5051587;28;20229;-60
2023/08/24 09:46:59;;;;;;;2.03;1.83;;;23.90;64.30;;;;;;5052030;28;22154;-60
2023/08/24 09:49:26;;;;;;;1.67;1.50;;;23.90;63.40;;;;;;5052335;28;20628;-60
2023/08/24 09:51:52;;;;;;;1.60;1.50;;;23.90;63.40;;;;;;5051761;28;20233;-60
2023/08/24 09:54:18;;;;;;;1.58;1.48;;;23.90;63.30;;;;;;5050821;28;20179;-60
2023/08/24 09:56:44;;;;;;;1.75;1.52;;;23.90;63.40;;;;;;5051273;28;20186;-60
2023/08/24 09:59:18;;;;;;;2.00;1.80;;;23.90;64.30;;;;;;5050166;28;20539;-60
2023/08/24 10:01:46;;;;;;;2.22;1.80;;;23.90;64.30;;;;;;5052313;28;20199;-60
2023/08/24 10:04:12;;;;;;;1.60;1.50;;;23.90;63.40;;;;;;5053343;28;20203;-60
2023/08/24 10:06:39;;;;;;;3.28;1.83;;;23.90;63.40;;;;;;5054643;28;20229;-60
2023/08/24 10:09:10;;;;;;;1.90;1.50;;;23.90;63.40;;;;;;5055421;28;20225;-60
2023/08/24 10:11:40;;;;;;;1.52;1.40;;;23.90;63.40;;;;;;5054081;28;20186;-59
2023/08/24 10:14:08;;;;;;;1.60;1.50;;;23.90;63.40;;;;;;5055427;28;20179;-59
2023/08/24 10:16:35;;;;;;;1.85;1.75;;;23.90;63.40;;;;;;5055571;28;20205;-59
2023/08/24 10:19:00;;;;;;;2.10;1.67;;;24.00;63.50;;;;;;5053730;28;20274;-59
2023/08/24 10:21:26;;;;;;;1.75;1.60;;;23.90;63.40;;;;;;5054342;28;20250;-60
2023/08/24 10:23:52;;;;;;;1.48;1.38;;;24.00;63.50;;;;;;5054452;28;20175;-60
2023/08/24 10:26:18;;;;;;;1.75;1.65;;;24.00;63.50;;;;;;5053308;28;20223;-59
2023/08/24 10:28:44;;;;;;;1.88;1.52;;;23.90;63.50;;;;;;5054206;28;20171;-59
2023/08/24 10:31:10;;;;;;;2.13;1.70;;;23.90;63.50;;;;;;5055035;28;20711;-59
2023/08/24 10:33:36;;;;;;;1.60;1.50;;;23.90;63.50;;;;;;5053379;28;20176;-59
2023/08/24 10:36:05;;;;;;;1.83;1.73;;;23.90;63.50;;;;;;5054093;28;20171;-59
2023/08/24 10:38:31;;;;;;;1.80;1.65;;;24.00;63.60;;;;;;5055419;28;20179;-59
2023/08/24 10:41:04;;;;;;;1.70;1.55;;;24.00;63.60;;;;;;5053224;28;20232;-59
2023/08/24 10:43:29;;;;;;;1.67;1.58;;;24.00;63.50;;;;;;5055098;28;20258;-59
2023/08/24 10:46:02;;;;;;;1.60;1.50;;;24.00;63.60;;;;;;5055112;28;20344;-63
2023/08/24 10:48:51;;;;;;;1.80;1.70;;;24.00;63.60;;;;;;5054031;28;20222;-69
2023/08/24 10:51:25;;;;;;;2.30;1.90;;;24.00;63.60;;;;;;5054484;28;20167;-68
2023/08/24 10:53:59;;;;;;;1.65;1.55;;;24.00;63.50;;;;;;5054469;28;20251;-69
2023/08/24 10:56:40;;;;;;;2.90;1.77;;;24.00;63.60;;;;;;5054783;28;20634;-68
2023/08/24 10:59:13;;;;;;;2.05;1.55;;;24.00;63.60;;;;;;5054471;28;20171;-69
2023/08/24 11:01:43;;;;;;;1.95;1.85;;;24.00;63.70;;;;;;5054065;28;20642;-68
2023/08/24 11:04:10;;;;;;;2.40;1.80;;;23.90;63.70;;;;;;5054405;28;20543;-70
2023/08/24 11:06:50;;;;;;;2.22;1.88;;;23.90;63.80;;;;;;5053464;28;20290;-70
2023/08/24 11:09:17;;;;;;;2.65;2.00;;;23.90;63.90;;;;;;5052647;28;20178;-69
2023/08/24 11:11:42;;;;;;;2.63;1.98;;;23.90;63.90;;;;;;5053377;28;20604;-68
2023/08/24 11:14:29;;;;;;;3.75;2.75;;;23.90;64.00;;;;;;5053278;28;20611;-68
2023/08/24 11:17:00;;;;;;;5.28;2.67;;;23.90;64.10;;;;;;5054145;28;20186;-69
2023/08/24 11:19:25;;;;;;;3.85;2.80;;;23.90;64.00;;;;;;5053297;28;20629;-67
2023/08/24 11:21:51;;;;;;;6.65;2.60;;;23.90;64.10;;;;;;5052411;28;20328;-67
2023/08/24 11:24:19;;;;;;;5.72;2.75;;;24.00;64.20;;;;;;5053975;28;20178;-67
2023/08/24 11:26:48;;;;;;;4.10;2.53;;;24.00;64.10;;;;;;5054473;28;20179;-67
2023/08/24 11:29:15;;;;;;;5.05;2.60;;;24.00;64.90;;;;;;5053410;28;20184;-67
2023/08/24 11:31:41;;;;;;;3.90;2.92;;;23.90;64.00;;;;;;5054268;28;20653;-69
2023/08/24 11:34:07;;;;;;;4.47;2.70;;;24.00;64.10;;;;;;5053829;28;20193;-69
2023/08/24 11:36:48;;;;;;;3.80;2.47;;;24.00;64.10;;;;;;5053496;28;20171;-71
2023/08/24 11:39:16;;;;;;;5.30;2.75;;;24.00;64.20;;;;;;5053908;28;20228;-70
2023/08/24 11:41:42;;;;;;;6.28;2.92;;;24.00;64.30;;;;;;5054192;28;20529;-70
2023/08/24 11:44:07;;;;;;;5.47;3.20;;;24.10;64.20;;;;;;5052834;28;20171;-70
2023/08/24 11:46:33;;;;;;;3.92;2.90;;;24.10;64.40;;;;;;5053849;28;20214;-70
2023/08/24 11:48:59;;;;;;;5.65;2.83;;;24.10;64.30;;;;;;5053487;28;20222;-68
2023/08/24 11:51:24;;;;;;;5.32;3.13;;;24.20;64.20;;;;;;5053220;28;20183;-68
2023/08/24 11:53:50;;;;;;;5.70;3.20;;;24.20;64.30;;;;;;5052754;28;20171;-70
2023/08/24 11:56:18;;;;;;;7.82;3.05;;;24.20;64.20;;;;;;5055701;28;20182;-71
2023/08/24 11:58:47;;;;;;;5.55;2.78;;;24.20;65.00;;;;;;5064060;28;20217;-72
2023/08/24 12:01:13;;;;;;;4.65;2.88;;;24.10;64.10;;;;;;5058313;28;20185;-71
2023/08/24 12:03:38;;;;;;;6.40;3.00;;;24.10;64.10;;;;;;5035558;28;20175;-73
2023/08/24 12:06:11;;;;;;;5.00;2.70;;;24.10;64.10;;;;;;5070791;28;20645;-72
2023/08/24 12:08:41;;;;;;;8.07;2.95;;;24.10;64.90;;;;;;5072776;28;20217;-71
2023/08/24 12:11:17;;;;;;;4.47;2.90;;;24.10;64.00;;;;;;5072677;28;20182;-72
2023/08/24 12:13:44;;;;;;;5.60;2.75;;;24.20;64.90;;;;;;5061011;28;20186;-71
2023/08/24 12:16:10;;;;;;;4.82;2.67;;;24.20;64.00;;;;;;5051372;28;20207;-71
2023/08/24 12:18:46;;;;;;;5.80;2.83;;;24.20;64.00;;;;;;5050513;28;20187;-71
2023/08/24 12:21:13;;;;;;;3.78;2.63;;;24.20;64.00;;;;;;5050360;28;20170;-70
2023/08/24 12:23:38;;;;;;;4.05;2.65;;;24.20;64.00;;;;;;5050475;28;20171;-71
2023/08/24 12:26:07;;;;;;;3.45;2.63;;;24.20;64.00;;;;;;5050215;28;20225;-71
2023/08/24 12:28:33;;;;;;;4.65;2.70;;;24.20;64.00;;;;;;5051490;28;20276;-70
2023/08/24 12:31:01;;;;;;;3.83;2.45;;;24.20;64.00;;;;;;5065986;28;20281;-72
2023/08/24 12:33:31;;;;;;;3.92;2.83;;;24.20;64.00;;;;;;5072699;28;20211;-72
2023/08/24 12:35:58;;;;;;;2.85;2.60;;;24.20;64.00;;;;;;5073174;28;20522;-73
2023/08/24 12:38:24;;;;;;;4.75;2.88;;;24.20;64.80;;;;;;5072724;28;20653;-71
2023/08/24 12:40:50;;;;;;;5.88;2.60;;;24.20;64.00;;;;;;5072167;28;20263;-73
2023/08/24 12:43:15;;;;;;;3.42;2.33;;;24.20;64.00;;;;;;5072309;28;20221;-71
2023/08/24 12:45:41;;;;;;;4.22;2.40;;;24.10;64.00;;;;;;5073062;28;20220;-72